This is the latest recevied weather packets stored in our database for station/object XE2CT-20. If no packets are shown the sender has not sent any weather packets the latest 10 day(s).
| Time | Temp. | Humidity | Pressure | Rain* | Wind** | Luminosity | Snow |
|---|---|---|---|---|---|---|---|
| 1777870615 | 25.56° C | 54% | 1021 hPa | - | - | - | - |
| 1777869714 | 26.11° C | 58% | 1023 hPa | - | - | - | - |
| 1777868813 | 26.11° C | 57% | 1023 hPa | - | - | - | - |
| 1777867912 | 26.11° C | 53% | 1022 hPa | - | - | - | - |
| 1777867011 | 26.11° C | 51% | 1021 hPa | - | - | - | - |
| 1777866110 | 26.67° C | 50% | 1021 hPa | - | - | - | - |
| 1777865209 | 26.67° C | 51% | 1021 hPa | - | - | - | - |
| 1777864307 | 27.22° C | 48% | 1020 hPa | - | - | - | - |
| 1777863406 | 27.78° C | 46% | 1019 hPa | - | - | - | - |
| 1777862505 | 27.78° C | 51% | 1022 hPa | - | - | - | - |
| 1777861604 | 28.33° C | 45% | 1018 hPa | - | - | - | - |
| 1777860703 | 28.89° C | 45% | 1018 hPa | - | - | - | - |
| 1777859802 | 28.89° C | 37% | 1013 hPa | - | - | - | - |
| 1777858901 | 29.44° C | 35% | 1011 hPa | - | - | - | - |
| 1777858000 | 29.44° C | 36% | 1012 hPa | - | - | - | - |
| 1777857099 | 29.44° C | 37% | 1012 hPa | - | - | - | - |
| 1777856198 | 29.44° C | 39% | 1013 hPa | - | - | - | - |
| 1777855297 | 30° C | 34% | 1011 hPa | - | - | - | - |
| 1777854396 | 30° C | 37% | 1013 hPa | - | - | - | - |
| 1777853495 | 30.56° C | 34% | 1010 hPa | - | - | - | - |
| 1777852594 | 31.67° C | 32% | 1010 hPa | - | - | - | - |
| 1777851693 | 32.22° C | 28% | 1008 hPa | - | - | - | - |
| 1777850792 | 34.44° C | 28% | 1007 hPa | - | - | - | - |
| 1777849891 | 36.67° C | 23% | 1003 hPa | - | - | - | - |
| 1777848989 | 35° C | 27% | 1005 hPa | - | - | - | - |
* Rain since midnight (hover to see other rain measurements)
** Current wind speed in m/s (hover to see current wind gust speed)